sensor_id;sensor_type;location;lat;lon;timestamp;P1;durP1;ratioP1;P2;durP2;ratioP2
7231;SDS011;3657;49.630;11.018;2023-02-15T00:00:06;17.60;;;15.90;;
7231;SDS011;3657;49.630;11.018;2023-02-15T00:02:35;18.70;;;16.87;;
7231;SDS011;3657;49.630;11.018;2023-02-15T00:05:02;17.33;;;15.83;;
7231;SDS011;3657;49.630;11.018;2023-02-15T00:07:28;19.40;;;17.53;;
7231;SDS011;3657;49.630;11.018;2023-02-15T00:09:55;18.17;;;16.53;;
7231;SDS011;3657;49.630;11.018;2023-02-15T00:12:22;16.23;;;14.93;;
7231;SDS011;3657;49.630;11.018;2023-02-15T00:14:50;16.03;;;14.83;;
7231;SDS011;3657;49.630;11.018;2023-02-15T00:17:16;15.23;;;13.93;;
7231;SDS011;3657;49.630;11.018;2023-02-15T00:19:43;13.37;;;12.23;;
7231;SDS011;3657;49.630;11.018;2023-02-15T00:22:10;19.37;;;17.37;;
7231;SDS011;3657;49.630;11.018;2023-02-15T00:24:36;16.27;;;14.87;;
7231;SDS011;3657;49.630;11.018;2023-02-15T00:27:03;18.00;;;16.33;;
7231;SDS011;3657;49.630;11.018;2023-02-15T00:29:30;19.60;;;17.33;;
7231;SDS011;3657;49.630;11.018;2023-02-15T00:31:58;18.53;;;16.93;;
7231;SDS011;3657;49.630;11.018;2023-02-15T00:34:25;16.90;;;15.40;;
7231;SDS011;3657;49.630;11.018;2023-02-15T00:36:53;17.07;;;15.63;;
7231;SDS011;3657;49.630;11.018;2023-02-15T00:39:20;18.97;;;17.13;;
7231;SDS011;3657;49.630;11.018;2023-02-15T00:41:47;16.70;;;15.23;;
7231;SDS011;3657;49.630;11.018;2023-02-15T00:44:14;17.43;;;15.97;;
7231;SDS011;3657;49.630;11.018;2023-02-15T00:46:41;18.20;;;16.47;;
7231;SDS011;3657;49.630;11.018;2023-02-15T00:49:09;15.73;;;14.47;;
7231;SDS011;3657;49.630;11.018;2023-02-15T00:51:36;15.93;;;14.57;;
7231;SDS011;3657;49.630;11.018;2023-02-15T00:54:04;16.90;;;15.50;;
7231;SDS011;3657;49.630;11.018;2023-02-15T00:56:31;17.07;;;15.67;;
7231;SDS011;3657;49.630;11.018;2023-02-15T00:58:57;16.07;;;14.67;;
7231;SDS011;3657;49.630;11.018;2023-02-15T01:01:24;17.07;;;15.63;;
7231;SDS011;3657;49.630;11.018;2023-02-15T01:03:51;17.00;;;15.57;;
7231;SDS011;3657;49.630;11.018;2023-02-15T01:06:19;15.40;;;14.13;;
7231;SDS011;3657;49.630;11.018;2023-02-15T01:08:46;17.37;;;15.87;;
7231;SDS011;3657;49.630;11.018;2023-02-15T01:11:13;15.53;;;14.33;;
7231;SDS011;3657;49.630;11.018;2023-02-15T01:13:47;16.40;;;15.13;;
7231;SDS011;3657;49.630;11.018;2023-02-15T01:16:13;17.17;;;15.67;;
7231;SDS011;3657;49.630;11.018;2023-02-15T01:18:40;17.33;;;15.83;;
7231;SDS011;3657;49.630;11.018;2023-02-15T01:21:11;16.53;;;15.03;;
7231;SDS011;3657;49.630;11.018;2023-02-15T01:23:40;16.97;;;15.47;;
7231;SDS011;3657;49.630;11.018;2023-02-15T01:26:07;17.63;;;16.07;;
7231;SDS011;3657;49.630;11.018;2023-02-15T01:28:33;18.60;;;17.03;;
7231;SDS011;3657;49.630;11.018;2023-02-15T01:31:04;20.13;;;17.23;;
7231;SDS011;3657;49.630;11.018;2023-02-15T01:33:31;16.53;;;15.23;;
7231;SDS011;3657;49.630;11.018;2023-02-15T01:35:58;18.70;;;16.90;;
7231;SDS011;3657;49.630;11.018;2023-02-15T01:38:25;17.63;;;16.07;;
7231;SDS011;3657;49.630;11.018;2023-02-15T01:40:53;18.03;;;16.37;;
7231;SDS011;3657;49.630;11.018;2023-02-15T01:43:40;19.07;;;17.17;;
7231;SDS011;3657;49.630;11.018;2023-02-15T01:46:08;19.17;;;17.47;;
7231;SDS011;3657;49.630;11.018;2023-02-15T01:48:37;19.23;;;17.43;;
7231;SDS011;3657;49.630;11.018;2023-02-15T01:51:11;19.33;;;17.57;;
7231;SDS011;3657;49.630;11.018;2023-02-15T01:53:40;17.30;;;15.90;;
7231;SDS011;3657;49.630;11.018;2023-02-15T01:56:12;17.80;;;16.27;;
7231;SDS011;3657;49.630;11.018;2023-02-15T01:58:42;19.03;;;17.33;;
7231;SDS011;3657;49.630;11.018;2023-02-15T02:01:10;17.40;;;15.80;;
7231;SDS011;3657;49.630;11.018;2023-02-15T02:03:38;16.53;;;15.03;;
7231;SDS011;3657;49.630;11.018;2023-02-15T02:06:12;15.77;;;14.57;;
7231;SDS011;3657;49.630;11.018;2023-02-15T02:08:39;17.63;;;16.10;;
7231;SDS011;3657;49.630;11.018;2023-02-15T02:11:10;19.90;;;17.93;;
7231;SDS011;3657;49.630;11.018;2023-02-15T02:13:38;21.30;;;18.67;;
7231;SDS011;3657;49.630;11.018;2023-02-15T02:16:06;19.33;;;17.53;;
7231;SDS011;3657;49.630;11.018;2023-02-15T02:18:40;19.93;;;18.03;;
7231;SDS011;3657;49.630;11.018;2023-02-15T02:21:30;18.40;;;16.63;;
7231;SDS011;3657;49.630;11.018;2023-02-15T02:24:21;21.60;;;19.33;;
7231;SDS011;3657;49.630;11.018;2023-02-15T02:27:05;21.10;;;17.83;;
7231;SDS011;3657;49.630;11.018;2023-02-15T02:32:59;21.90;;;18.47;;
7231;SDS011;3657;49.630;11.018;2023-02-15T02:35:37;22.40;;;20.00;;
7231;SDS011;3657;49.630;11.018;2023-02-15T02:38:10;21.27;;;19.23;;
7231;SDS011;3657;49.630;11.018;2023-02-15T02:40:45;20.43;;;18.43;;
7231;SDS011;3657;49.630;11.018;2023-02-15T02:43:19;18.57;;;16.90;;
7231;SDS011;3657;49.630;11.018;2023-02-15T02:45:53;18.60;;;16.77;;
7231;SDS011;3657;49.630;11.018;2023-02-15T02:48:25;20.13;;;18.13;;
7231;SDS011;3657;49.630;11.018;2023-02-15T02:50:55;18.67;;;17.07;;
7231;SDS011;3657;49.630;11.018;2023-02-15T02:53:22;17.90;;;16.30;;
7231;SDS011;3657;49.630;11.018;2023-02-15T02:55:50;19.23;;;17.40;;
7231;SDS011;3657;49.630;11.018;2023-02-15T02:58:20;17.73;;;16.13;;
7231;SDS011;3657;49.630;11.018;2023-02-15T03:00:50;18.57;;;16.87;;
7231;SDS011;3657;49.630;11.018;2023-02-15T03:03:22;17.80;;;16.30;;
7231;SDS011;3657;49.630;11.018;2023-02-15T03:05:53;17.53;;;16.03;;
7231;SDS011;3657;49.630;11.018;2023-02-15T03:08:24;17.93;;;16.30;;
7231;SDS011;3657;49.630;11.018;2023-02-15T03:10:57;20.17;;;18.10;;
7231;SDS011;3657;49.630;11.018;2023-02-15T03:13:25;15.80;;;14.50;;
7231;SDS011;3657;49.630;11.018;2023-02-15T03:15:53;19.80;;;17.87;;
7231;SDS011;3657;49.630;11.018;2023-02-15T03:18:42;17.47;;;16.07;;
7231;SDS011;3657;49.630;11.018;2023-02-15T03:21:17;18.03;;;16.37;;
7231;SDS011;3657;49.630;11.018;2023-02-15T03:23:48;17.50;;;16.00;;
7231;SDS011;3657;49.630;11.018;2023-02-15T03:26:18;16.37;;;15.03;;
7231;SDS011;3657;49.630;11.018;2023-02-15T03:28:47;16.87;;;15.33;;
7231;SDS011;3657;49.630;11.018;2023-02-15T03:31:16;18.13;;;16.53;;
7231;SDS011;3657;49.630;11.018;2023-02-15T03:33:49;17.37;;;15.97;;
7231;SDS011;3657;49.630;11.018;2023-02-15T03:36:18;17.53;;;16.03;;
7231;SDS011;3657;49.630;11.018;2023-02-15T03:38:49;16.63;;;15.23;;
7231;SDS011;3657;49.630;11.018;2023-02-15T03:41:24;16.17;;;14.70;;
7231;SDS011;3657;49.630;11.018;2023-02-15T03:43:54;16.27;;;14.87;;
7231;SDS011;3657;49.630;11.018;2023-02-15T03:46:24;18.60;;;17.10;;
7231;SDS011;3657;49.630;11.018;2023-02-15T03:48:57;17.73;;;16.13;;
7231;SDS011;3657;49.630;11.018;2023-02-15T03:51:29;18.40;;;16.67;;
7231;SDS011;3657;49.630;11.018;2023-02-15T03:54:03;17.57;;;15.97;;
7231;SDS011;3657;49.630;11.018;2023-02-15T03:56:33;17.57;;;16.07;;
7231;SDS011;3657;49.630;11.018;2023-02-15T03:59:01;16.23;;;14.83;;
7231;SDS011;3657;49.630;11.018;2023-02-15T04:01:47;19.73;;;17.87;;
7231;SDS011;3657;49.630;11.018;2023-02-15T04:04:27;19.13;;;17.43;;
7231;SDS011;3657;49.630;11.018;2023-02-15T04:06:58;18.43;;;16.93;;
7231;SDS011;3657;49.630;11.018;2023-02-15T04:09:25;18.97;;;17.10;;
7231;SDS011;3657;49.630;11.018;2023-02-15T04:12:09;17.57;;;15.97;;
7231;SDS011;3657;49.630;11.018;2023-02-15T04:14:36;17.63;;;16.13;;
7231;SDS011;3657;49.630;11.018;2023-02-15T04:17:20;16.17;;;14.97;;
7231;SDS011;3657;49.630;11.018;2023-02-15T04:19:48;17.37;;;15.93;;
7231;SDS011;3657;49.630;11.018;2023-02-15T04:22:32;15.60;;;14.33;;
7231;SDS011;3657;49.630;11.018;2023-02-15T04:25:16;16.20;;;14.90;;
7231;SDS011;3657;49.630;11.018;2023-02-15T04:27:44;16.87;;;15.57;;
7231;SDS011;3657;49.630;11.018;2023-02-15T04:30:13;16.77;;;15.43;;
7231;SDS011;3657;49.630;11.018;2023-02-15T04:32:41;17.30;;;15.63;;
7231;SDS011;3657;49.630;11.018;2023-02-15T04:35:09;18.00;;;16.37;;
7231;SDS011;3657;49.630;11.018;2023-02-15T04:37:37;19.70;;;17.87;;
7231;SDS011;3657;49.630;11.018;2023-02-15T04:40:05;18.20;;;16.60;;
7231;SDS011;3657;49.630;11.018;2023-02-15T04:42:33;17.77;;;16.17;;
7231;SDS011;3657;49.630;11.018;2023-02-15T04:44:59;17.40;;;15.73;;
7231;SDS011;3657;49.630;11.018;2023-02-15T04:47:26;19.23;;;17.47;;
7231;SDS011;3657;49.630;11.018;2023-02-15T04:49:53;17.97;;;16.40;;
7231;SDS011;3657;49.630;11.018;2023-02-15T04:52:21;19.43;;;17.67;;
7231;SDS011;3657;49.630;11.018;2023-02-15T04:54:47;18.97;;;17.23;;
7231;SDS011;3657;49.630;11.018;2023-02-15T04:57:14;18.13;;;16.47;;
7231;SDS011;3657;49.630;11.018;2023-02-15T04:59:41;20.80;;;18.80;;
7231;SDS011;3657;49.630;11.018;2023-02-15T05:02:08;18.07;;;16.37;;
7231;SDS011;3657;49.630;11.018;2023-02-15T05:04:34;18.87;;;17.27;;
7231;SDS011;3657;49.630;11.018;2023-02-15T05:07:01;20.50;;;18.53;;
7231;SDS011;3657;49.630;11.018;2023-02-15T05:09:29;19.73;;;17.53;;
7231;SDS011;3657;49.630;11.018;2023-02-15T05:11:56;20.63;;;18.53;;
7231;SDS011;3657;49.630;11.018;2023-02-15T05:14:22;19.43;;;17.57;;
7231;SDS011;3657;49.630;11.018;2023-02-15T05:16:49;21.33;;;19.13;;
7231;SDS011;3657;49.630;11.018;2023-02-15T05:19:16;20.67;;;18.57;;
7231;SDS011;3657;49.630;11.018;2023-02-15T05:21:42;20.63;;;18.53;;
7231;SDS011;3657;49.630;11.018;2023-02-15T05:24:09;19.53;;;17.63;;
7231;SDS011;3657;49.630;11.018;2023-02-15T05:26:51;19.67;;;17.87;;
7231;SDS011;3657;49.630;11.018;2023-02-15T05:29:35;19.93;;;18.00;;
7231;SDS011;3657;49.630;11.018;2023-02-15T05:32:02;19.23;;;17.23;;
7231;SDS011;3657;49.630;11.018;2023-02-15T05:34:29;19.57;;;17.67;;
7231;SDS011;3657;49.630;11.018;2023-02-15T05:36:55;21.33;;;18.80;;
7231;SDS011;3657;49.630;11.018;2023-02-15T05:39:22;20.00;;;18.10;;
7231;SDS011;3657;49.630;11.018;2023-02-15T05:41:49;19.60;;;17.80;;
7231;SDS011;3657;49.630;11.018;2023-02-15T05:44:17;21.43;;;19.33;;
7231;SDS011;3657;49.630;11.018;2023-02-15T05:46:43;23.77;;;21.37;;
7231;SDS011;3657;49.630;11.018;2023-02-15T05:49:10;23.67;;;21.30;;
7231;SDS011;3657;49.630;11.018;2023-02-15T05:51:37;21.23;;;19.03;;
7231;SDS011;3657;49.630;11.018;2023-02-15T05:54:03;22.20;;;19.93;;
7231;SDS011;3657;49.630;11.018;2023-02-15T05:56:30;21.83;;;19.53;;
7231;SDS011;3657;49.630;11.018;2023-02-15T05:58:57;25.27;;;21.30;;
7231;SDS011;3657;49.630;11.018;2023-02-15T06:01:25;22.80;;;20.37;;
7231;SDS011;3657;49.630;11.018;2023-02-15T06:03:51;21.13;;;18.97;;
7231;SDS011;3657;49.630;11.018;2023-02-15T06:06:19;21.17;;;19.00;;
7231;SDS011;3657;49.630;11.018;2023-02-15T06:08:46;21.37;;;19.10;;
7231;SDS011;3657;49.630;11.018;2023-02-15T06:11:12;19.20;;;17.30;;
7231;SDS011;3657;49.630;11.018;2023-02-15T06:13:39;19.93;;;18.00;;
7231;SDS011;3657;49.630;11.018;2023-02-15T06:16:06;20.27;;;18.27;;
7231;SDS011;3657;49.630;11.018;2023-02-15T06:18:34;21.43;;;19.27;;
7231;SDS011;3657;49.630;11.018;2023-02-15T06:21:01;20.83;;;18.73;;
7231;SDS011;3657;49.630;11.018;2023-02-15T06:23:27;23.23;;;20.73;;
7231;SDS011;3657;49.630;11.018;2023-02-15T06:25:54;22.60;;;20.23;;
7231;SDS011;3657;49.630;11.018;2023-02-15T06:28:21;21.60;;;19.37;;
7231;SDS011;3657;49.630;11.018;2023-02-15T06:30:47;21.90;;;19.73;;
7231;SDS011;3657;49.630;11.018;2023-02-15T06:33:14;23.80;;;21.37;;
7231;SDS011;3657;49.630;11.018;2023-02-15T06:35:42;22.97;;;20.57;;
7231;SDS011;3657;49.630;11.018;2023-02-15T06:38:09;23.23;;;20.83;;
7231;SDS011;3657;49.630;11.018;2023-02-15T06:40:35;22.00;;;19.63;;
7231;SDS011;3657;49.630;11.018;2023-02-15T06:43:02;22.27;;;19.90;;
7231;SDS011;3657;49.630;11.018;2023-02-15T06:45:29;26.23;;;22.50;;
7231;SDS011;3657;49.630;11.018;2023-02-15T06:47:55;22.80;;;20.50;;
7231;SDS011;3657;49.630;11.018;2023-02-15T06:50:22;22.33;;;20.10;;
7231;SDS011;3657;49.630;11.018;2023-02-15T06:52:52;22.80;;;20.53;;
7231;SDS011;3657;49.630;11.018;2023-02-15T06:55:21;23.70;;;21.17;;
7231;SDS011;3657;49.630;11.018;2023-02-15T06:57:48;22.37;;;20.17;;
7231;SDS011;3657;49.630;11.018;2023-02-15T07:00:15;24.57;;;21.97;;
7231;SDS011;3657;49.630;11.018;2023-02-15T07:02:42;23.60;;;21.17;;
7231;SDS011;3657;49.630;11.018;2023-02-15T07:05:09;25.13;;;22.47;;
7231;SDS011;3657;49.630;11.018;2023-02-15T07:07:36;21.90;;;19.70;;
7231;SDS011;3657;49.630;11.018;2023-02-15T07:10:04;25.70;;;22.40;;
7231;SDS011;3657;49.630;11.018;2023-02-15T07:12:32;25.80;;;23.17;;
7231;SDS011;3657;49.630;11.018;2023-02-15T07:15:07;28.07;;;24.10;;
7231;SDS011;3657;49.630;11.018;2023-02-15T07:17:34;26.17;;;23.37;;
7231;SDS011;3657;49.630;11.018;2023-02-15T07:20:02;26.17;;;23.40;;
7231;SDS011;3657;49.630;11.018;2023-02-15T07:22:29;24.10;;;21.50;;
7231;SDS011;3657;49.630;11.018;2023-02-15T07:24:56;24.87;;;22.33;;
7231;SDS011;3657;49.630;11.018;2023-02-15T07:27:24;25.50;;;22.77;;
7231;SDS011;3657;49.630;11.018;2023-02-15T07:29:50;25.03;;;22.33;;
7231;SDS011;3657;49.630;11.018;2023-02-15T07:32:17;25.97;;;23.03;;
7231;SDS011;3657;49.630;11.018;2023-02-15T07:34:44;26.23;;;23.43;;
7231;SDS011;3657;49.630;11.018;2023-02-15T07:37:10;30.43;;;25.07;;
7231;SDS011;3657;49.630;11.018;2023-02-15T07:39:37;26.30;;;23.23;;
7231;SDS011;3657;49.630;11.018;2023-02-15T07:42:04;27.73;;;24.37;;
7231;SDS011;3657;49.630;11.018;2023-02-15T07:44:32;26.47;;;23.63;;
7231;SDS011;3657;49.630;11.018;2023-02-15T07:46:58;28.27;;;24.17;;
7231;SDS011;3657;49.630;11.018;2023-02-15T07:49:25;28.30;;;25.27;;
7231;SDS011;3657;49.630;11.018;2023-02-15T07:51:52;30.20;;;25.77;;
7231;SDS011;3657;49.630;11.018;2023-02-15T07:54:18;34.00;;;27.10;;
7231;SDS011;3657;49.630;11.018;2023-02-15T07:56:45;28.03;;;24.37;;
7231;SDS011;3657;49.630;11.018;2023-02-15T07:59:12;32.23;;;26.07;;
7231;SDS011;3657;49.630;11.018;2023-02-15T08:01:40;28.07;;;24.20;;
7231;SDS011;3657;49.630;11.018;2023-02-15T08:04:07;28.87;;;22.87;;
7231;SDS011;3657;49.630;11.018;2023-02-15T08:06:36;26.47;;;22.57;;
7231;SDS011;3657;49.630;11.018;2023-02-15T08:09:03;27.07;;;22.97;;
7231;SDS011;3657;49.630;11.018;2023-02-15T08:11:32;32.33;;;27.43;;
7231;SDS011;3657;49.630;11.018;2023-02-15T08:14:02;28.03;;;24.13;;
7231;SDS011;3657;49.630;11.018;2023-02-15T08:16:32;33.37;;;25.90;;
7231;SDS011;3657;49.630;11.018;2023-02-15T08:19:02;29.00;;;24.33;;
7231;SDS011;3657;49.630;11.018;2023-02-15T08:21:30;25.57;;;22.87;;
7231;SDS011;3657;49.630;11.018;2023-02-15T08:23:58;30.13;;;24.83;;
7231;SDS011;3657;49.630;11.018;2023-02-15T08:26:25;30.80;;;23.97;;
7231;SDS011;3657;49.630;11.018;2023-02-15T08:28:53;25.37;;;22.10;;
7231;SDS011;3657;49.630;11.018;2023-02-15T08:31:20;36.83;;;27.87;;
7231;SDS011;3657;49.630;11.018;2023-02-15T08:33:48;29.37;;;24.70;;
7231;SDS011;3657;49.630;11.018;2023-02-15T08:36:18;29.17;;;25.00;;
7231;SDS011;3657;49.630;11.018;2023-02-15T08:38:47;27.43;;;23.67;;
7231;SDS011;3657;49.630;11.018;2023-02-15T08:41:15;29.37;;;26.20;;
7231;SDS011;3657;49.630;11.018;2023-02-15T08:43:44;29.67;;;24.47;;
7231;SDS011;3657;49.630;11.018;2023-02-15T08:46:12;29.03;;;25.43;;
7231;SDS011;3657;49.630;11.018;2023-02-15T08:48:39;31.60;;;25.47;;
7231;SDS011;3657;49.630;11.018;2023-02-15T08:51:07;29.93;;;25.73;;
7231;SDS011;3657;49.630;11.018;2023-02-15T08:53:38;26.47;;;23.63;;
7231;SDS011;3657;49.630;11.018;2023-02-15T08:56:05;27.33;;;24.53;;
7231;SDS011;3657;49.630;11.018;2023-02-15T08:58:33;32.30;;;26.93;;
7231;SDS011;3657;49.630;11.018;2023-02-15T09:01:00;32.57;;;27.10;;
7231;SDS011;3657;49.630;11.018;2023-02-15T09:03:28;35.67;;;29.07;;
7231;SDS011;3657;49.630;11.018;2023-02-15T09:05:58;36.17;;;27.97;;
7231;SDS011;3657;49.630;11.018;2023-02-15T09:08:25;37.27;;;29.03;;
7231;SDS011;3657;49.630;11.018;2023-02-15T09:10:54;31.60;;;27.33;;
7231;SDS011;3657;49.630;11.018;2023-02-15T09:13:27;30.83;;;26.90;;
7231;SDS011;3657;49.630;11.018;2023-02-15T09:15:58;30.43;;;26.43;;
7231;SDS011;3657;49.630;11.018;2023-02-15T09:18:25;32.87;;;26.17;;
7231;SDS011;3657;49.630;11.018;2023-02-15T09:20:52;29.23;;;25.27;;
7231;SDS011;3657;49.630;11.018;2023-02-15T09:23:20;29.20;;;25.10;;
7231;SDS011;3657;49.630;11.018;2023-02-15T09:25:46;29.93;;;25.60;;
7231;SDS011;3657;49.630;11.018;2023-02-15T09:28:14;32.37;;;26.43;;
7231;SDS011;3657;49.630;11.018;2023-02-15T09:30:41;32.10;;;26.23;;
7231;SDS011;3657;49.630;11.018;2023-02-15T09:33:08;30.20;;;26.77;;
7231;SDS011;3657;49.630;11.018;2023-02-15T09:35:34;33.97;;;26.90;;
7231;SDS011;3657;49.630;11.018;2023-02-15T09:38:01;33.10;;;27.20;;
7231;SDS011;3657;49.630;11.018;2023-02-15T09:40:28;31.57;;;27.87;;
7231;SDS011;3657;49.630;11.018;2023-02-15T09:43:19;30.80;;;27.03;;
7231;SDS011;3657;49.630;11.018;2023-02-15T09:46:06;32.33;;;26.47;;
7231;SDS011;3657;49.630;11.018;2023-02-15T09:48:42;30.57;;;26.63;;
7231;SDS011;3657;49.630;11.018;2023-02-15T09:51:23;32.97;;;27.17;;
7231;SDS011;3657;49.630;11.018;2023-02-15T09:54:16;30.47;;;25.70;;
7231;SDS011;3657;49.630;11.018;2023-02-15T09:56:55;30.43;;;26.97;;
7231;SDS011;3657;49.630;11.018;2023-02-15T09:59:29;29.20;;;25.00;;
7231;SDS011;3657;49.630;11.018;2023-02-15T10:02:04;27.17;;;24.27;;
7231;SDS011;3657;49.630;11.018;2023-02-15T10:04:53;29.17;;;25.03;;
7231;SDS011;3657;49.630;11.018;2023-02-15T10:07:32;33.73;;;25.77;;
7231;SDS011;3657;49.630;11.018;2023-02-15T10:10:12;31.47;;;26.43;;
7231;SDS011;3657;49.630;11.018;2023-02-15T10:12:49;27.47;;;24.00;;
7231;SDS011;3657;49.630;11.018;2023-02-15T10:15:42;27.63;;;24.63;;
7231;SDS011;3657;49.630;11.018;2023-02-15T10:18:30;29.13;;;25.53;;
7231;SDS011;3657;49.630;11.018;2023-02-15T10:21:11;27.50;;;24.50;;
7231;SDS011;3657;49.630;11.018;2023-02-15T10:23:49;27.83;;;24.83;;
7231;SDS011;3657;49.630;11.018;2023-02-15T10:26:26;23.20;;;19.97;;
7231;SDS011;3657;49.630;11.018;2023-02-15T10:29:01;28.57;;;25.17;;
7231;SDS011;3657;49.630;11.018;2023-02-15T10:31:35;27.57;;;24.10;;
7231;SDS011;3657;49.630;11.018;2023-02-15T10:34:11;29.43;;;23.80;;
7231;SDS011;3657;49.630;11.018;2023-02-15T10:36:46;26.40;;;23.37;;
7231;SDS011;3657;49.630;11.018;2023-02-15T10:39:39;26.33;;;23.27;;
7231;SDS011;3657;49.630;11.018;2023-02-15T10:42:17;28.90;;;25.97;;
7231;SDS011;3657;49.630;11.018;2023-02-15T10:44:57;26.90;;;24.10;;
7231;SDS011;3657;49.630;11.018;2023-02-15T10:47:38;26.87;;;23.87;;
7231;SDS011;3657;49.630;11.018;2023-02-15T10:50:16;25.47;;;22.87;;
7231;SDS011;3657;49.630;11.018;2023-02-15T10:52:55;24.40;;;22.00;;
7231;SDS011;3657;49.630;11.018;2023-02-15T10:55:36;23.83;;;21.50;;
7231;SDS011;3657;49.630;11.018;2023-02-15T10:58:14;25.80;;;23.07;;
7231;SDS011;3657;49.630;11.018;2023-02-15T11:00:47;25.80;;;23.13;;
7231;SDS011;3657;49.630;11.018;2023-02-15T11:03:29;23.00;;;20.87;;
7231;SDS011;3657;49.630;11.018;2023-02-15T11:06:15;20.90;;;19.07;;
7231;SDS011;3657;49.630;11.018;2023-02-15T11:08:46;22.50;;;20.30;;
7231;SDS011;3657;49.630;11.018;2023-02-15T11:11:19;23.23;;;20.90;;
7231;SDS011;3657;49.630;11.018;2023-02-15T11:13:50;22.23;;;20.07;;
7231;SDS011;3657;49.630;11.018;2023-02-15T11:16:20;23.40;;;21.00;;
7231;SDS011;3657;49.630;11.018;2023-02-15T11:18:51;21.77;;;19.77;;
7231;SDS011;3657;49.630;11.018;2023-02-15T11:21:22;21.37;;;19.30;;
7231;SDS011;3657;49.630;11.018;2023-02-15T11:23:51;20.53;;;18.53;;
7231;SDS011;3657;49.630;11.018;2023-02-15T11:26:20;20.53;;;18.63;;
7231;SDS011;3657;49.630;11.018;2023-02-15T11:28:53;18.53;;;17.03;;
7231;SDS011;3657;49.630;11.018;2023-02-15T11:31:24;21.77;;;19.73;;
7231;SDS011;3657;49.630;11.018;2023-02-15T11:33:58;19.23;;;17.43;;
7231;SDS011;3657;49.630;11.018;2023-02-15T11:36:31;20.13;;;18.33;;
7231;SDS011;3657;49.630;11.018;2023-02-15T11:39:00;18.57;;;17.07;;
7231;SDS011;3657;49.630;11.018;2023-02-15T11:41:31;19.83;;;18.03;;
7231;SDS011;3657;49.630;11.018;2023-02-15T11:44:04;20.97;;;19.07;;
7231;SDS011;3657;49.630;11.018;2023-02-15T11:46:37;19.40;;;17.63;;
7231;SDS011;3657;49.630;11.018;2023-02-15T11:49:07;22.67;;;20.67;;
7231;SDS011;3657;49.630;11.018;2023-02-15T11:51:45;20.60;;;18.80;;
7231;SDS011;3657;49.630;11.018;2023-02-15T11:54:11;20.87;;;18.97;;
7231;SDS011;3657;49.630;11.018;2023-02-15T11:56:38;19.77;;;18.07;;
7231;SDS011;3657;49.630;11.018;2023-02-15T11:59:06;18.87;;;17.27;;
7231;SDS011;3657;49.630;11.018;2023-02-15T12:01:39;20.67;;;18.73;;
7231;SDS011;3657;49.630;11.018;2023-02-15T12:04:10;19.57;;;17.70;;
7231;SDS011;3657;49.630;11.018;2023-02-15T12:06:46;21.20;;;19.17;;
7231;SDS011;3657;49.630;11.018;2023-02-15T12:09:20;20.00;;;18.33;;
7231;SDS011;3657;49.630;11.018;2023-02-15T12:11:52;18.73;;;17.23;;
7231;SDS011;3657;49.630;11.018;2023-02-15T12:14:18;18.63;;;17.13;;
7231;SDS011;3657;49.630;11.018;2023-02-15T12:16:46;16.53;;;15.37;;
7231;SDS011;3657;49.630;11.018;2023-02-15T12:19:28;19.37;;;17.67;;
7231;SDS011;3657;49.630;11.018;2023-02-15T12:21:57;18.97;;;17.33;;
7231;SDS011;3657;49.630;11.018;2023-02-15T12:24:26;21.23;;;17.57;;
7231;SDS011;3657;49.630;11.018;2023-02-15T12:26:59;18.93;;;17.33;;
7231;SDS011;3657;49.630;11.018;2023-02-15T12:29:29;13.40;;;12.30;;
7231;SDS011;3657;49.630;11.018;2023-02-15T12:32:00;19.83;;;17.97;;
7231;SDS011;3657;49.630;11.018;2023-02-15T12:34:29;19.37;;;17.60;;
7231;SDS011;3657;49.630;11.018;2023-02-15T12:37:00;20.53;;;18.63;;
7231;SDS011;3657;49.630;11.018;2023-02-15T12:39:33;20.07;;;18.47;;
7231;SDS011;3657;49.630;11.018;2023-02-15T12:42:02;20.23;;;18.53;;
7231;SDS011;3657;49.630;11.018;2023-02-15T12:44:31;22.43;;;20.23;;
7231;SDS011;3657;49.630;11.018;2023-02-15T12:47:00;21.83;;;19.77;;
7231;SDS011;3657;49.630;11.018;2023-02-15T12:49:29;22.03;;;19.90;;
7231;SDS011;3657;49.630;11.018;2023-02-15T12:54:30;22.40;;;20.43;;
7231;SDS011;3657;49.630;11.018;2023-02-15T12:57:14;21.13;;;19.33;;
7231;SDS011;3657;49.630;11.018;2023-02-15T12:59:48;21.53;;;19.70;;
7231;SDS011;3657;49.630;11.018;2023-02-15T13:02:18;22.80;;;20.50;;
7231;SDS011;3657;49.630;11.018;2023-02-15T13:04:49;25.20;;;22.47;;
7231;SDS011;3657;49.630;11.018;2023-02-15T13:07:16;26.73;;;24.10;;
7231;SDS011;3657;49.630;11.018;2023-02-15T13:09:43;24.67;;;22.37;;
7231;SDS011;3657;49.630;11.018;2023-02-15T13:12:14;23.27;;;21.17;;
7231;SDS011;3657;49.630;11.018;2023-02-15T13:14:44;27.23;;;24.47;;
7231;SDS011;3657;49.630;11.018;2023-02-15T13:17:15;24.90;;;22.30;;
7231;SDS011;3657;49.630;11.018;2023-02-15T13:19:44;23.63;;;21.13;;
7231;SDS011;3657;49.630;11.018;2023-02-15T13:22:15;23.73;;;21.53;;
7231;SDS011;3657;49.630;11.018;2023-02-15T13:24:46;23.67;;;21.60;;
7231;SDS011;3657;49.630;11.018;2023-02-15T13:27:15;25.30;;;22.90;;
7231;SDS011;3657;49.630;11.018;2023-02-15T13:29:45;25.13;;;22.67;;
7231;SDS011;3657;49.630;11.018;2023-02-15T13:32:19;24.70;;;22.33;;
7231;SDS011;3657;49.630;11.018;2023-02-15T13:34:51;23.73;;;21.63;;
7231;SDS011;3657;49.630;11.018;2023-02-15T13:37:25;26.60;;;24.10;;
7231;SDS011;3657;49.630;11.018;2023-02-15T13:40:03;24.17;;;21.90;;
7231;SDS011;3657;49.630;11.018;2023-02-15T13:42:40;24.23;;;21.93;;
7231;SDS011;3657;49.630;11.018;2023-02-15T13:45:16;24.70;;;22.30;;
7231;SDS011;3657;49.630;11.018;2023-02-15T13:47:55;25.33;;;22.73;;
7231;SDS011;3657;49.630;11.018;2023-02-15T13:50:52;25.13;;;22.67;;
7231;SDS011;3657;49.630;11.018;2023-02-15T13:53:31;24.43;;;22.03;;
7231;SDS011;3657;49.630;11.018;2023-02-15T13:56:09;24.33;;;22.13;;
7231;SDS011;3657;49.630;11.018;2023-02-15T13:58:51;24.67;;;22.37;;
7231;SDS011;3657;49.630;11.018;2023-02-15T14:01:31;24.93;;;22.57;;
7231;SDS011;3657;49.630;11.018;2023-02-15T14:04:09;24.77;;;22.47;;
7231;SDS011;3657;49.630;11.018;2023-02-15T14:06:52;25.63;;;22.97;;
7231;SDS011;3657;49.630;11.018;2023-02-15T14:09:35;25.30;;;23.00;;
7231;SDS011;3657;49.630;11.018;2023-02-15T14:12:15;28.07;;;25.37;;
7231;SDS011;3657;49.630;11.018;2023-02-15T14:15:05;24.77;;;22.57;;
7231;SDS011;3657;49.630;11.018;2023-02-15T14:17:43;24.80;;;22.60;;
7231;SDS011;3657;49.630;11.018;2023-02-15T14:20:19;24.50;;;22.47;;
7231;SDS011;3657;49.630;11.018;2023-02-15T14:22:52;25.10;;;22.80;;
7231;SDS011;3657;49.630;11.018;2023-02-15T14:25:28;27.63;;;25.17;;
7231;SDS011;3657;49.630;11.018;2023-02-15T14:28:01;24.10;;;22.03;;
7231;SDS011;3657;49.630;11.018;2023-02-15T14:30:34;26.13;;;23.77;;
7231;SDS011;3657;49.630;11.018;2023-02-15T14:33:04;26.73;;;24.17;;
7231;SDS011;3657;49.630;11.018;2023-02-15T14:35:34;27.70;;;25.10;;
7231;SDS011;3657;49.630;11.018;2023-02-15T14:38:02;25.80;;;23.43;;
7231;SDS011;3657;49.630;11.018;2023-02-15T14:40:40;27.83;;;25.30;;
7231;SDS011;3657;49.630;11.018;2023-02-15T14:43:31;26.27;;;23.77;;
7231;SDS011;3657;49.630;11.018;2023-02-15T14:46:10;27.57;;;25.17;;
7231;SDS011;3657;49.630;11.018;2023-02-15T14:48:45;29.43;;;26.53;;
7231;SDS011;3657;49.630;11.018;2023-02-15T14:57:25;28.33;;;25.63;;
7231;SDS011;3657;49.630;11.018;2023-02-15T14:59:57;29.00;;;25.97;;
7231;SDS011;3657;49.630;11.018;2023-02-15T15:02:27;28.37;;;25.47;;
7231;SDS011;3657;49.630;11.018;2023-02-15T15:05:07;28.07;;;25.27;;
7231;SDS011;3657;49.630;11.018;2023-02-15T15:07:36;26.97;;;24.57;;